Strona główna
METAR-TAF:

METAR-TAF

Lotnisko :

Saint-Hubert, Quebec, Kanada

Szerokość geograficzna: 45-31N, Długość geograficzna: 073-25W, wysokość: 27 m

Aktualna obserwacja pogody

Raport powstał 1 godzina i 3 minut temu, godzina 08:00 UTC
Cisza
Temperatura 14°C
Wilgotność 88%
Ciśnienie 1020 hPa
Widzialność: 14.5 km
bezchmurnie

METAR: CYHU 200800Z AUTO 00000KT 9SM CLR 14/12 A3013 RMK SLP203

czas: 05:03 (09:03 UTC)

Prognoza

Raport powstał 3 godziny i 25 minut temu, godzina 05:38 UTC
Prognoza ważna od 20 godzina 06 UTC do 21 godzina 06 UTC
Wiatr 3 kt z kierunków zmiennych
Widzialność: 10 km
bezchmurnie
Od 20 godzina 1600 UTC
Wiatr 3 kt z kierunków zmiennych
Widzialność: 10 km
Mało chmury na wysokości 5000 ft
Stopniowe zmiany
od 20 godzina 20 UTC do 20 godzina 22 UTC
Wiatr 5 kt od wschodnio-południowy wschód

TAF: CYHU 200538Z 2006/2106 VRB03KT P6SM SKC FM201600 VRB03KT P6SM FEW050 BECMG 2020/2022 11005KT RMK FCST BASED ON AUTO OBS. NXT FCST BY 201200Z

Obserwacja i prognoza pogody dla ponad 4000 lotnisk (raport METAR i TAF).

Dostępne stacje oznaczono żółtymi i czerwonymi punktami na mapie.

Najedź kursorem aby zobaczyć nazwę stacji.

Kliknij aby zobaczyć obserwacje i prognozy pogody.

Aby zmienić mapę: kliknij na zielony przycisk z czarnym krzyżykiem, aby powiększyć; na zielony przycisk z myślnikiem, aby pomniejszyć; na zielone strzałki, aby przejść do map sąsiednich.


METAR-TAF: